sensor_id;sensor_type;location;lat;lon;timestamp;P1;durP1;ratioP1;P2;durP2;ratioP2
58784;SDS011;44557;51.862;19.378;2023-06-10T00:01:30;10.30;;;8.50;;
58784;SDS011;44557;51.862;19.378;2023-06-10T00:03:31;11.00;;;8.50;;
58784;SDS011;44557;51.862;19.378;2023-06-10T00:05:34;9.70;;;8.50;;
58784;SDS011;44557;51.862;19.378;2023-06-10T00:07:37;10.30;;;8.40;;
58784;SDS011;44557;51.862;19.378;2023-06-10T00:09:42;10.70;;;8.80;;
58784;SDS011;44557;51.862;19.378;2023-06-10T00:11:44;12.40;;;9.80;;
58784;SDS011;44557;51.862;19.378;2023-06-10T00:13:45;10.80;;;9.40;;
58784;SDS011;44557;51.862;19.378;2023-06-10T00:15:47;13.40;;;10.40;;
58784;SDS011;44557;51.862;19.378;2023-06-10T00:17:49;12.70;;;9.70;;
58784;SDS011;44557;51.862;19.378;2023-06-10T00:19:50;11.20;;;9.80;;
58784;SDS011;44557;51.862;19.378;2023-06-10T00:21:53;12.50;;;10.00;;
58784;SDS011;44557;51.862;19.378;2023-06-10T00:23:54;12.80;;;10.30;;
58784;SDS011;44557;51.862;19.378;2023-06-10T00:25:59;11.40;;;10.00;;
58784;SDS011;44557;51.862;19.378;2023-06-10T00:28:01;11.70;;;10.10;;
58784;SDS011;44557;51.862;19.378;2023-06-10T00:30:03;13.10;;;10.70;;
58784;SDS011;44557;51.862;19.378;2023-06-10T00:32:07;14.00;;;10.60;;
58784;SDS011;44557;51.862;19.378;2023-06-10T00:34:09;11.80;;;10.50;;
58784;SDS011;44557;51.862;19.378;2023-06-10T00:36:11;14.00;;;10.80;;
58784;SDS011;44557;51.862;19.378;2023-06-10T00:38:13;14.00;;;10.50;;
58784;SDS011;44557;51.862;19.378;2023-06-10T00:40:16;13.00;;;10.70;;
58784;SDS011;44557;51.862;19.378;2023-06-10T00:42:18;13.20;;;10.50;;
58784;SDS011;44557;51.862;19.378;2023-06-10T00:44:20;13.60;;;10.10;;
58784;SDS011;44557;51.862;19.378;2023-06-10T00:46:22;13.00;;;10.30;;
58784;SDS011;44557;51.862;19.378;2023-06-10T00:48:26;12.30;;;10.20;;
58784;SDS011;44557;51.862;19.378;2023-06-10T00:50:28;13.30;;;10.50;;
58784;SDS011;44557;51.862;19.378;2023-06-10T00:52:32;11.70;;;10.50;;
58784;SDS011;44557;51.862;19.378;2023-06-10T00:54:36;12.60;;;10.80;;
58784;SDS011;44557;51.862;19.378;2023-06-10T00:56:40;13.00;;;11.10;;
58784;SDS011;44557;51.862;19.378;2023-06-10T00:58:44;13.70;;;12.10;;
58784;SDS011;44557;51.862;19.378;2023-06-10T01:00:46;13.00;;;11.20;;
58784;SDS011;44557;51.862;19.378;2023-06-10T01:02:48;12.40;;;11.10;;
58784;SDS011;44557;51.862;19.378;2023-06-10T01:04:52;13.40;;;11.00;;
58784;SDS011;44557;51.862;19.378;2023-06-10T01:07:36;12.20;;;10.80;;
58784;SDS011;44557;51.862;19.378;2023-06-10T01:09:28;13.30;;;10.90;;
58784;SDS011;44557;51.862;19.378;2023-06-10T01:11:53;12.40;;;10.30;;
58784;SDS011;44557;51.862;19.378;2023-06-10T01:14:03;12.30;;;10.90;;
58784;SDS011;44557;51.862;19.378;2023-06-10T01:16:06;12.30;;;10.80;;
58784;SDS011;44557;51.862;19.378;2023-06-10T01:18:09;13.20;;;11.60;;
58784;SDS011;44557;51.862;19.378;2023-06-10T01:20:22;13.80;;;11.50;;
58784;SDS011;44557;51.862;19.378;2023-06-10T01:22:25;11.60;;;10.40;;
58784;SDS011;44557;51.862;19.378;2023-06-10T01:24:29;12.50;;;10.80;;
58784;SDS011;44557;51.862;19.378;2023-06-10T01:26:33;12.60;;;11.20;;
58784;SDS011;44557;51.862;19.378;2023-06-10T01:31:08;12.00;;;10.80;;
58784;SDS011;44557;51.862;19.378;2023-06-10T01:33:13;11.20;;;10.00;;
58784;SDS011;44557;51.862;19.378;2023-06-10T01:35:22;12.90;;;11.60;;
58784;SDS011;44557;51.862;19.378;2023-06-10T01:37:29;12.70;;;10.20;;
58784;SDS011;44557;51.862;19.378;2023-06-10T01:39:32;11.70;;;10.50;;
58784;SDS011;44557;51.862;19.378;2023-06-10T01:41:34;13.70;;;11.40;;
58784;SDS011;44557;51.862;19.378;2023-06-10T01:43:39;12.70;;;11.10;;
58784;SDS011;44557;51.862;19.378;2023-06-10T01:45:41;12.50;;;10.90;;
58784;SDS011;44557;51.862;19.378;2023-06-10T01:47:43;12.80;;;11.40;;
58784;SDS011;44557;51.862;19.378;2023-06-10T01:49:44;12.80;;;10.90;;
58784;SDS011;44557;51.862;19.378;2023-06-10T01:51:46;12.50;;;11.10;;
58784;SDS011;44557;51.862;19.378;2023-06-10T01:53:48;12.80;;;11.40;;
58784;SDS011;44557;51.862;19.378;2023-06-10T01:55:50;12.50;;;10.90;;
58784;SDS011;44557;51.862;19.378;2023-06-10T01:57:51;13.50;;;11.00;;
58784;SDS011;44557;51.862;19.378;2023-06-10T01:59:53;14.20;;;11.70;;
58784;SDS011;44557;51.862;19.378;2023-06-10T02:01:55;13.30;;;11.80;;
58784;SDS011;44557;51.862;19.378;2023-06-10T02:03:56;13.40;;;11.20;;
58784;SDS011;44557;51.862;19.378;2023-06-10T02:05:58;12.70;;;11.30;;
58784;SDS011;44557;51.862;19.378;2023-06-10T02:08:00;15.60;;;11.50;;
58784;SDS011;44557;51.862;19.378;2023-06-10T02:10:02;14.70;;;11.70;;
58784;SDS011;44557;51.862;19.378;2023-06-10T02:12:04;14.00;;;11.40;;
58784;SDS011;44557;51.862;19.378;2023-06-10T02:14:06;14.30;;;11.60;;
58784;SDS011;44557;51.862;19.378;2023-06-10T02:16:07;12.90;;;11.50;;
58784;SDS011;44557;51.862;19.378;2023-06-10T02:18:10;14.80;;;11.20;;
58784;SDS011;44557;51.862;19.378;2023-06-10T02:20:13;12.50;;;10.90;;
58784;SDS011;44557;51.862;19.378;2023-06-10T02:22:14;13.90;;;11.30;;
58784;SDS011;44557;51.862;19.378;2023-06-10T02:24:16;15.60;;;11.40;;
58784;SDS011;44557;51.862;19.378;2023-06-10T02:26:18;13.20;;;11.50;;
58784;SDS011;44557;51.862;19.378;2023-06-10T02:28:19;12.20;;;10.90;;
58784;SDS011;44557;51.862;19.378;2023-06-10T02:30:21;13.20;;;11.70;;
58784;SDS011;44557;51.862;19.378;2023-06-10T02:32:23;15.10;;;11.00;;
58784;SDS011;44557;51.862;19.378;2023-06-10T02:34:25;12.90;;;11.20;;
58784;SDS011;44557;51.862;19.378;2023-06-10T02:36:26;11.90;;;10.50;;
58784;SDS011;44557;51.862;19.378;2023-06-10T02:38:28;14.10;;;11.30;;
58784;SDS011;44557;51.862;19.378;2023-06-10T02:40:30;13.30;;;11.40;;
58784;SDS011;44557;51.862;19.378;2023-06-10T02:42:32;12.70;;;10.70;;
58784;SDS011;44557;51.862;19.378;2023-06-10T02:44:33;13.50;;;11.50;;
58784;SDS011;44557;51.862;19.378;2023-06-10T02:46:35;12.70;;;10.90;;
58784;SDS011;44557;51.862;19.378;2023-06-10T02:48:43;11.90;;;10.70;;
58784;SDS011;44557;51.862;19.378;2023-06-10T02:50:47;12.40;;;10.80;;
58784;SDS011;44557;51.862;19.378;2023-06-10T02:52:49;15.00;;;11.20;;
58784;SDS011;44557;51.862;19.378;2023-06-10T02:54:51;12.90;;;10.90;;
58784;SDS011;44557;51.862;19.378;2023-06-10T02:56:52;12.60;;;11.30;;
58784;SDS011;44557;51.862;19.378;2023-06-10T02:58:57;14.60;;;10.80;;
58784;SDS011;44557;51.862;19.378;2023-06-10T03:00:59;12.30;;;10.30;;
58784;SDS011;44557;51.862;19.378;2023-06-10T03:03:01;11.80;;;9.60;;
58784;SDS011;44557;51.862;19.378;2023-06-10T03:05:04;11.90;;;9.60;;
58784;SDS011;44557;51.862;19.378;2023-06-10T03:07:11;11.80;;;10.30;;
58784;SDS011;44557;51.862;19.378;2023-06-10T03:09:12;11.20;;;9.60;;
58784;SDS011;44557;51.862;19.378;2023-06-10T03:11:15;11.70;;;9.30;;
58784;SDS011;44557;51.862;19.378;2023-06-10T03:13:17;13.30;;;10.50;;
58784;SDS011;44557;51.862;19.378;2023-06-10T03:15:18;11.30;;;9.60;;
58784;SDS011;44557;51.862;19.378;2023-06-10T03:17:22;13.10;;;10.20;;
58784;SDS011;44557;51.862;19.378;2023-06-10T03:19:23;13.80;;;10.40;;
58784;SDS011;44557;51.862;19.378;2023-06-10T03:21:25;12.40;;;10.60;;
58784;SDS011;44557;51.862;19.378;2023-06-10T03:23:27;12.40;;;10.80;;
58784;SDS011;44557;51.862;19.378;2023-06-10T03:25:28;11.30;;;10.00;;
58784;SDS011;44557;51.862;19.378;2023-06-10T03:27:31;12.10;;;10.80;;
58784;SDS011;44557;51.862;19.378;2023-06-10T03:29:34;12.50;;;10.20;;
58784;SDS011;44557;51.862;19.378;2023-06-10T03:31:36;11.60;;;9.80;;
58784;SDS011;44557;51.862;19.378;2023-06-10T03:33:37;11.90;;;9.60;;
58784;SDS011;44557;51.862;19.378;2023-06-10T03:35:42;13.20;;;10.10;;
58784;SDS011;44557;51.862;19.378;2023-06-10T03:37:44;11.50;;;9.90;;
58784;SDS011;44557;51.862;19.378;2023-06-10T03:39:46;12.10;;;9.40;;
58784;SDS011;44557;51.862;19.378;2023-06-10T03:41:47;10.40;;;9.20;;
58784;SDS011;44557;51.862;19.378;2023-06-10T03:43:49;10.10;;;8.70;;
58784;SDS011;44557;51.862;19.378;2023-06-10T03:45:50;12.30;;;9.60;;
58784;SDS011;44557;51.862;19.378;2023-06-10T03:47:53;11.80;;;9.60;;
58784;SDS011;44557;51.862;19.378;2023-06-10T03:49:55;10.70;;;9.00;;
58784;SDS011;44557;51.862;19.378;2023-06-10T03:51:58;10.90;;;9.00;;
58784;SDS011;44557;51.862;19.378;2023-06-10T03:54:00;12.30;;;8.40;;
58784;SDS011;44557;51.862;19.378;2023-06-10T03:56:01;11.40;;;8.80;;
58784;SDS011;44557;51.862;19.378;2023-06-10T03:58:03;14.10;;;9.00;;
58784;SDS011;44557;51.862;19.378;2023-06-10T04:00:05;10.30;;;8.60;;
58784;SDS011;44557;51.862;19.378;2023-06-10T04:02:13;12.90;;;8.50;;
58784;SDS011;44557;51.862;19.378;2023-06-10T04:04:15;11.20;;;8.30;;
58784;SDS011;44557;51.862;19.378;2023-06-10T04:06:20;10.10;;;7.90;;
58784;SDS011;44557;51.862;19.378;2023-06-10T04:08:24;10.40;;;7.70;;
58784;SDS011;44557;51.862;19.378;2023-06-10T04:10:25;11.30;;;7.40;;
58784;SDS011;44557;51.862;19.378;2023-06-10T04:12:27;9.40;;;6.90;;
58784;SDS011;44557;51.862;19.378;2023-06-10T04:14:28;10.90;;;7.70;;
58784;SDS011;44557;51.862;19.378;2023-06-10T04:16:30;11.40;;;6.80;;
58784;SDS011;44557;51.862;19.378;2023-06-10T04:18:32;11.00;;;7.10;;
58784;SDS011;44557;51.862;19.378;2023-06-10T04:20:33;10.80;;;7.30;;
58784;SDS011;44557;51.862;19.378;2023-06-10T04:22:37;9.40;;;6.70;;
58784;SDS011;44557;51.862;19.378;2023-06-10T04:24:39;9.40;;;6.50;;
58784;SDS011;44557;51.862;19.378;2023-06-10T04:26:40;9.30;;;6.70;;
58784;SDS011;44557;51.862;19.378;2023-06-10T04:28:43;10.80;;;6.40;;
58784;SDS011;44557;51.862;19.378;2023-06-10T04:30:44;11.20;;;6.90;;
58784;SDS011;44557;51.862;19.378;2023-06-10T04:32:47;10.60;;;6.80;;
58784;SDS011;44557;51.862;19.378;2023-06-10T04:34:49;11.00;;;6.20;;
58784;SDS011;44557;51.862;19.378;2023-06-10T04:36:50;11.30;;;6.80;;
58784;SDS011;44557;51.862;19.378;2023-06-10T04:38:52;9.60;;;5.80;;
58784;SDS011;44557;51.862;19.378;2023-06-10T04:40:53;9.40;;;5.70;;
58784;SDS011;44557;51.862;19.378;2023-06-10T04:42:55;10.30;;;6.10;;
58784;SDS011;44557;51.862;19.378;2023-06-10T04:44:57;9.60;;;5.80;;
58784;SDS011;44557;51.862;19.378;2023-06-10T04:46:59;10.10;;;6.20;;
58784;SDS011;44557;51.862;19.378;2023-06-10T04:49:00;9.80;;;6.10;;
58784;SDS011;44557;51.862;19.378;2023-06-10T04:51:02;8.80;;;5.40;;
58784;SDS011;44557;51.862;19.378;2023-06-10T04:53:04;9.80;;;5.90;;
58784;SDS011;44557;51.862;19.378;2023-06-10T04:55:05;8.90;;;5.20;;
58784;SDS011;44557;51.862;19.378;2023-06-10T04:57:07;8.30;;;5.00;;
58784;SDS011;44557;51.862;19.378;2023-06-10T04:59:09;8.20;;;5.50;;
58784;SDS011;44557;51.862;19.378;2023-06-10T05:01:11;7.80;;;5.20;;
58784;SDS011;44557;51.862;19.378;2023-06-10T05:03:12;10.60;;;6.20;;
58784;SDS011;44557;51.862;19.378;2023-06-10T05:05:14;9.50;;;6.30;;
58784;SDS011;44557;51.862;19.378;2023-06-10T05:07:16;10.40;;;5.50;;
58784;SDS011;44557;51.862;19.378;2023-06-10T05:09:17;8.90;;;5.40;;
58784;SDS011;44557;51.862;19.378;2023-06-10T05:11:19;11.10;;;5.80;;
58784;SDS011;44557;51.862;19.378;2023-06-10T05:13:20;9.50;;;5.20;;
58784;SDS011;44557;51.862;19.378;2023-06-10T05:15:22;10.80;;;5.20;;
58784;SDS011;44557;51.862;19.378;2023-06-10T05:17:24;11.20;;;5.70;;
58784;SDS011;44557;51.862;19.378;2023-06-10T05:19:26;10.30;;;6.00;;
58784;SDS011;44557;51.862;19.378;2023-06-10T05:21:28;10.10;;;5.80;;
58784;SDS011;44557;51.862;19.378;2023-06-10T05:23:30;10.00;;;5.20;;
58784;SDS011;44557;51.862;19.378;2023-06-10T05:25:32;9.50;;;5.60;;
58784;SDS011;44557;51.862;19.378;2023-06-10T05:27:34;9.90;;;5.00;;
58784;SDS011;44557;51.862;19.378;2023-06-10T05:29:35;9.80;;;5.70;;
58784;SDS011;44557;51.862;19.378;2023-06-10T05:31:37;11.40;;;5.40;;
58784;SDS011;44557;51.862;19.378;2023-06-10T05:33:39;9.40;;;5.50;;
58784;SDS011;44557;51.862;19.378;2023-06-10T05:35:41;10.10;;;5.70;;
58784;SDS011;44557;51.862;19.378;2023-06-10T05:37:43;9.50;;;5.70;;
58784;SDS011;44557;51.862;19.378;2023-06-10T05:39:45;10.30;;;5.20;;
58784;SDS011;44557;51.862;19.378;2023-06-10T05:41:47;9.00;;;5.60;;
58784;SDS011;44557;51.862;19.378;2023-06-10T05:43:48;11.50;;;5.40;;
58784;SDS011;44557;51.862;19.378;2023-06-10T05:45:50;10.60;;;5.10;;
58784;SDS011;44557;51.862;19.378;2023-06-10T05:47:52;8.80;;;4.70;;
58784;SDS011;44557;51.862;19.378;2023-06-10T05:49:53;9.20;;;5.10;;
58784;SDS011;44557;51.862;19.378;2023-06-10T05:51:55;9.90;;;5.00;;
58784;SDS011;44557;51.862;19.378;2023-06-10T05:53:58;10.70;;;5.10;;
58784;SDS011;44557;51.862;19.378;2023-06-10T05:56:00;9.60;;;5.10;;
58784;SDS011;44557;51.862;19.378;2023-06-10T05:58:03;9.00;;;5.00;;
58784;SDS011;44557;51.862;19.378;2023-06-10T06:00:05;8.10;;;4.90;;
58784;SDS011;44557;51.862;19.378;2023-06-10T06:02:07;8.10;;;4.90;;
58784;SDS011;44557;51.862;19.378;2023-06-10T06:04:09;8.80;;;5.10;;
58784;SDS011;44557;51.862;19.378;2023-06-10T06:06:10;10.30;;;5.10;;
58784;SDS011;44557;51.862;19.378;2023-06-10T06:08:12;12.00;;;5.90;;
58784;SDS011;44557;51.862;19.378;2023-06-10T06:10:19;10.20;;;5.20;;
58784;SDS011;44557;51.862;19.378;2023-06-10T06:12:21;9.40;;;5.50;;
58784;SDS011;44557;51.862;19.378;2023-06-10T06:14:22;10.30;;;5.00;;
58784;SDS011;44557;51.862;19.378;2023-06-10T06:16:24;10.10;;;5.80;;
58784;SDS011;44557;51.862;19.378;2023-06-10T06:18:26;9.60;;;5.70;;
58784;SDS011;44557;51.862;19.378;2023-06-10T06:20:28;9.70;;;5.90;;
58784;SDS011;44557;51.862;19.378;2023-06-10T06:22:29;10.60;;;5.50;;
58784;SDS011;44557;51.862;19.378;2023-06-10T06:24:31;9.10;;;5.70;;
58784;SDS011;44557;51.862;19.378;2023-06-10T06:26:33;8.80;;;5.30;;
58784;SDS011;44557;51.862;19.378;2023-06-10T06:28:34;10.40;;;5.50;;
58784;SDS011;44557;51.862;19.378;2023-06-10T06:30:36;10.40;;;5.50;;
58784;SDS011;44557;51.862;19.378;2023-06-10T06:32:38;11.40;;;5.40;;
58784;SDS011;44557;51.862;19.378;2023-06-10T06:34:39;9.40;;;5.20;;
58784;SDS011;44557;51.862;19.378;2023-06-10T06:36:41;12.60;;;5.70;;
58784;SDS011;44557;51.862;19.378;2023-06-10T06:38:42;9.40;;;5.90;;
58784;SDS011;44557;51.862;19.378;2023-06-10T06:40:44;10.40;;;6.00;;
58784;SDS011;44557;51.862;19.378;2023-06-10T06:42:46;11.00;;;5.70;;
58784;SDS011;44557;51.862;19.378;2023-06-10T06:44:47;10.00;;;5.10;;
58784;SDS011;44557;51.862;19.378;2023-06-10T06:46:49;9.40;;;5.70;;
58784;SDS011;44557;51.862;19.378;2023-06-10T06:48:50;9.50;;;5.40;;
58784;SDS011;44557;51.862;19.378;2023-06-10T06:50:52;9.70;;;5.90;;
58784;SDS011;44557;51.862;19.378;2023-06-10T06:52:54;9.80;;;5.70;;
58784;SDS011;44557;51.862;19.378;2023-06-10T06:54:55;12.00;;;5.80;;
58784;SDS011;44557;51.862;19.378;2023-06-10T06:56:57;9.90;;;5.50;;
58784;SDS011;44557;51.862;19.378;2023-06-10T06:58:58;11.20;;;5.90;;
58784;SDS011;44557;51.862;19.378;2023-06-10T07:01:00;10.30;;;5.70;;
58784;SDS011;44557;51.862;19.378;2023-06-10T07:03:02;9.60;;;5.70;;
58784;SDS011;44557;51.862;19.378;2023-06-10T07:05:03;11.40;;;6.20;;
58784;SDS011;44557;51.862;19.378;2023-06-10T07:07:06;9.10;;;5.30;;
58784;SDS011;44557;51.862;19.378;2023-06-10T07:09:09;10.10;;;6.10;;
58784;SDS011;44557;51.862;19.378;2023-06-10T07:11:11;8.80;;;5.60;;
58784;SDS011;44557;51.862;19.378;2023-06-10T07:13:12;10.80;;;5.60;;
58784;SDS011;44557;51.862;19.378;2023-06-10T07:15:14;11.10;;;5.70;;
58784;SDS011;44557;51.862;19.378;2023-06-10T07:17:16;10.80;;;6.10;;
58784;SDS011;44557;51.862;19.378;2023-06-10T07:19:19;9.70;;;5.70;;
58784;SDS011;44557;51.862;19.378;2023-06-10T07:21:20;8.70;;;5.90;;
58784;SDS011;44557;51.862;19.378;2023-06-10T07:23:23;9.90;;;6.30;;
58784;SDS011;44557;51.862;19.378;2023-06-10T07:25:25;11.00;;;6.70;;
58784;SDS011;44557;51.862;19.378;2023-06-10T07:27:27;11.90;;;6.60;;
58784;SDS011;44557;51.862;19.378;2023-06-10T07:29:28;14.20;;;7.20;;
58784;SDS011;44557;51.862;19.378;2023-06-10T07:31:30;9.10;;;6.90;;
58784;SDS011;44557;51.862;19.378;2023-06-10T07:33:31;11.70;;;6.50;;
58784;SDS011;44557;51.862;19.378;2023-06-10T07:35:33;8.80;;;6.40;;
58784;SDS011;44557;51.862;19.378;2023-06-10T07:37:35;10.50;;;6.90;;
58784;SDS011;44557;51.862;19.378;2023-06-10T07:39:36;10.60;;;6.70;;
58784;SDS011;44557;51.862;19.378;2023-06-10T07:41:38;12.10;;;6.70;;
58784;SDS011;44557;51.862;19.378;2023-06-10T07:43:39;9.60;;;6.50;;
58784;SDS011;44557;51.862;19.378;2023-06-10T07:45:41;9.50;;;6.20;;
58784;SDS011;44557;51.862;19.378;2023-06-10T07:47:43;11.60;;;6.40;;
58784;SDS011;44557;51.862;19.378;2023-06-10T07:49:44;11.70;;;6.80;;
58784;SDS011;44557;51.862;19.378;2023-06-10T07:51:46;9.70;;;6.10;;
58784;SDS011;44557;51.862;19.378;2023-06-10T07:53:47;10.60;;;6.10;;
58784;SDS011;44557;51.862;19.378;2023-06-10T07:55:49;9.60;;;5.60;;
58784;SDS011;44557;51.862;19.378;2023-06-10T07:57:51;9.40;;;6.10;;
58784;SDS011;44557;51.862;19.378;2023-06-10T07:59:53;9.60;;;6.10;;
58784;SDS011;44557;51.862;19.378;2023-06-10T08:01:56;9.90;;;5.80;;
58784;SDS011;44557;51.862;19.378;2023-06-10T08:03:57;10.60;;;5.80;;
58784;SDS011;44557;51.862;19.378;2023-06-10T08:05:59;9.60;;;5.20;;
58784;SDS011;44557;51.862;19.378;2023-06-10T08:08:00;9.40;;;5.20;;
58784;SDS011;44557;51.862;19.378;2023-06-10T08:10:02;9.40;;;5.80;;
58784;SDS011;44557;51.862;19.378;2023-06-10T08:12:05;9.50;;;4.90;;
58784;SDS011;44557;51.862;19.378;2023-06-10T08:14:08;9.80;;;5.70;;
58784;SDS011;44557;51.862;19.378;2023-06-10T08:16:09;10.10;;;5.80;;
58784;SDS011;44557;51.862;19.378;2023-06-10T08:18:11;10.00;;;5.60;;
58784;SDS011;44557;51.862;19.378;2023-06-10T08:20:12;11.90;;;5.90;;
58784;SDS011;44557;51.862;19.378;2023-06-10T08:22:14;9.10;;;5.90;;
58784;SDS011;44557;51.862;19.378;2023-06-10T08:24:16;8.60;;;5.60;;
58784;SDS011;44557;51.862;19.378;2023-06-10T08:26:19;10.80;;;5.30;;
58784;SDS011;44557;51.862;19.378;2023-06-10T08:28:21;11.80;;;5.60;;
58784;SDS011;44557;51.862;19.378;2023-06-10T08:30:23;8.90;;;5.40;;
58784;SDS011;44557;51.862;19.378;2023-06-10T08:32:24;7.70;;;5.00;;
58784;SDS011;44557;51.862;19.378;2023-06-10T08:34:26;11.10;;;5.80;;
58784;SDS011;44557;51.862;19.378;2023-06-10T08:36:27;8.00;;;5.20;;
58784;SDS011;44557;51.862;19.378;2023-06-10T08:38:30;8.80;;;5.20;;
58784;SDS011;44557;51.862;19.378;2023-06-10T08:40:32;7.60;;;5.40;;
58784;SDS011;44557;51.862;19.378;2023-06-10T08:42:39;7.90;;;5.20;;
58784;SDS011;44557;51.862;19.378;2023-06-10T08:44:44;9.80;;;5.50;;
58784;SDS011;44557;51.862;19.378;2023-06-10T08:46:48;9.00;;;5.20;;
58784;SDS011;44557;51.862;19.378;2023-06-10T08:48:52;10.50;;;5.90;;
58784;SDS011;44557;51.862;19.378;2023-06-10T08:50:57;10.00;;;5.30;;
58784;SDS011;44557;51.862;19.378;2023-06-10T08:52:58;9.20;;;5.30;;
58784;SDS011;44557;51.862;19.378;2023-06-10T08:55:44;8.60;;;5.00;;
58784;SDS011;44557;51.862;19.378;2023-06-10T08:57:47;7.50;;;4.90;;
58784;SDS011;44557;51.862;19.378;2023-06-10T08:59:50;9.00;;;5.40;;
58784;SDS011;44557;51.862;19.378;2023-06-10T09:01:55;8.20;;;4.90;;
58784;SDS011;44557;51.862;19.378;2023-06-10T09:28:44;7.60;;;4.10;;
58784;SDS011;44557;51.862;19.378;2023-06-10T09:31:06;9.20;;;3.90;;
58784;SDS011;44557;51.862;19.378;2023-06-10T09:38:51;9.00;;;4.60;;
58784;SDS011;44557;51.862;19.378;2023-06-10T10:35:47;6.30;;;3.40;;
58784;SDS011;44557;51.862;19.378;2023-06-10T10:37:54;5.40;;;3.30;;
58784;SDS011;44557;51.862;19.378;2023-06-10T10:39:56;6.10;;;3.10;;
58784;SDS011;44557;51.862;19.378;2023-06-10T10:41:58;6.30;;;3.70;;
58784;SDS011;44557;51.862;19.378;2023-06-10T10:44:00;6.00;;;3.40;;
58784;SDS011;44557;51.862;19.378;2023-06-10T10:46:08;5.70;;;3.30;;
58784;SDS011;44557;51.862;19.378;2023-06-10T10:48:13;6.50;;;3.30;;
58784;SDS011;44557;51.862;19.378;2023-06-10T10:50:18;6.20;;;3.40;;
58784;SDS011;44557;51.862;19.378;2023-06-10T10:52:27;7.80;;;3.60;;
58784;SDS011;44557;51.862;19.378;2023-06-10T10:54:54;7.80;;;3.60;;
58784;SDS011;44557;51.862;19.378;2023-06-10T10:57:09;6.40;;;3.40;;
58784;SDS011;44557;51.862;19.378;2023-06-10T10:59:44;8.60;;;4.00;;
58784;SDS011;44557;51.862;19.378;2023-06-10T11:02:01;7.50;;;4.10;;
58784;SDS011;44557;51.862;19.378;2023-06-10T11:04:03;6.70;;;3.40;;
58784;SDS011;44557;51.862;19.378;2023-06-10T11:06:14;7.00;;;4.50;;
58784;SDS011;44557;51.862;19.378;2023-06-10T11:10:38;6.10;;;3.30;;
58784;SDS011;44557;51.862;19.378;2023-06-10T11:14:53;7.30;;;3.40;;
58784;SDS011;44557;51.862;19.378;2023-06-10T11:16:59;5.80;;;3.70;;
58784;SDS011;44557;51.862;19.378;2023-06-10T11:19:02;5.80;;;3.50;;
58784;SDS011;44557;51.862;19.378;2023-06-10T11:21:04;7.50;;;3.30;;
58784;SDS011;44557;51.862;19.378;2023-06-10T11:23:07;6.40;;;3.60;;
58784;SDS011;44557;51.862;19.378;2023-06-10T11:32:20;5.90;;;3.50;;
58784;SDS011;44557;51.862;19.378;2023-06-10T11:34:27;9.80;;;3.10;;
58784;SDS011;44557;51.862;19.378;2023-06-10T11:36:33;8.80;;;3.50;;
58784;SDS011;44557;51.862;19.378;2023-06-10T11:38:37;6.10;;;3.50;;
58784;SDS011;44557;51.862;19.378;2023-06-10T11:40:40;7.30;;;3.40;;
58784;SDS011;44557;51.862;19.378;2023-06-10T11:43:01;7.40;;;3.60;;
58784;SDS011;44557;51.862;19.378;2023-06-10T11:45:25;9.10;;;3.70;;
58784;SDS011;44557;51.862;19.378;2023-06-10T11:47:36;6.60;;;3.50;;
58784;SDS011;44557;51.862;19.378;2023-06-10T11:49:38;7.00;;;3.50;;
58784;SDS011;44557;51.862;19.378;2023-06-10T11:51:40;5.80;;;3.10;;
58784;SDS011;44557;51.862;19.378;2023-06-10T11:53:50;6.40;;;3.80;;
58784;SDS011;44557;51.862;19.378;2023-06-10T11:55:53;8.10;;;3.40;;
58784;SDS011;44557;51.862;19.378;2023-06-10T11:57:55;7.70;;;3.40;;
58784;SDS011;44557;51.862;19.378;2023-06-10T12:00:03;6.80;;;3.50;;
58784;SDS011;44557;51.862;19.378;2023-06-10T12:02:14;5.10;;;3.10;;
58784;SDS011;44557;51.862;19.378;2023-06-10T12:04:20;8.70;;;3.90;;
58784;SDS011;44557;51.862;19.378;2023-06-10T12:06:23;8.30;;;3.90;;
58784;SDS011;44557;51.862;19.378;2023-06-10T12:08:24;8.80;;;3.40;;
58784;SDS011;44557;51.862;19.378;2023-06-10T12:10:26;8.30;;;3.20;;
58784;SDS011;44557;51.862;19.378;2023-06-10T12:12:28;8.60;;;3.40;;
58784;SDS011;44557;51.862;19.378;2023-06-10T12:17:04;6.10;;;3.60;;
58784;SDS011;44557;51.862;19.378;2023-06-10T12:19:05;6.60;;;3.40;;
58784;SDS011;44557;51.862;19.378;2023-06-10T12:21:18;8.10;;;5.40;;
58784;SDS011;44557;51.862;19.378;2023-06-10T12:23:21;8.20;;;4.20;;
58784;SDS011;44557;51.862;19.378;2023-06-10T12:25:24;6.30;;;3.50;;
58784;SDS011;44557;51.862;19.378;2023-06-10T12:27:30;7.40;;;3.30;;
58784;SDS011;44557;51.862;19.378;2023-06-10T12:29:32;6.40;;;3.40;;
58784;SDS011;44557;51.862;19.378;2023-06-10T12:31:51;6.60;;;3.00;;
58784;SDS011;44557;51.862;19.378;2023-06-10T12:34:09;9.50;;;3.30;;
58784;SDS011;44557;51.862;19.378;2023-06-10T12:36:15;5.80;;;3.10;;
58784;SDS011;44557;51.862;19.378;2023-06-10T12:38:22;8.00;;;3.80;;
58784;SDS011;44557;51.862;19.378;2023-06-10T12:40:29;7.10;;;3.40;;
58784;SDS011;44557;51.862;19.378;2023-06-10T12:42:32;9.70;;;3.80;;
58784;SDS011;44557;51.862;19.378;2023-06-10T12:44:39;7.40;;;3.30;;
58784;SDS011;44557;51.862;19.378;2023-06-10T12:46:42;7.50;;;3.40;;
58784;SDS011;44557;51.862;19.378;2023-06-10T12:48:50;6.80;;;3.30;;
58784;SDS011;44557;51.862;19.378;2023-06-10T12:50:54;7.70;;;3.60;;
58784;SDS011;44557;51.862;19.378;2023-06-10T12:52:57;6.50;;;3.30;;
58784;SDS011;44557;51.862;19.378;2023-06-10T12:54:59;7.40;;;3.30;;
58784;SDS011;44557;51.862;19.378;2023-06-10T12:57:02;11.60;;;6.60;;
58784;SDS011;44557;51.862;19.378;2023-06-10T12:59:04;9.30;;;3.60;;
58784;SDS011;44557;51.862;19.378;2023-06-10T13:01:05;6.60;;;3.70;;
58784;SDS011;44557;51.862;19.378;2023-06-10T13:03:08;6.50;;;3.40;;
58784;SDS011;44557;51.862;19.378;2023-06-10T13:05:10;8.50;;;3.50;;
58784;SDS011;44557;51.862;19.378;2023-06-10T13:07:12;7.10;;;3.50;;
58784;SDS011;44557;51.862;19.378;2023-06-10T13:09:14;8.00;;;4.00;;
58784;SDS011;44557;51.862;19.378;2023-06-10T13:11:16;12.60;;;10.30;;
58784;SDS011;44557;51.862;19.378;2023-06-10T13:13:21;8.20;;;3.30;;
58784;SDS011;44557;51.862;19.378;2023-06-10T13:15:23;9.10;;;3.70;;
58784;SDS011;44557;51.862;19.378;2023-06-10T13:17:25;6.60;;;3.40;;
58784;SDS011;44557;51.862;19.378;2023-06-10T13:19:27;7.40;;;3.60;;
58784;SDS011;44557;51.862;19.378;2023-06-10T13:21:29;6.70;;;3.20;;
58784;SDS011;44557;51.862;19.378;2023-06-10T13:23:31;6.40;;;3.60;;
58784;SDS011;44557;51.862;19.378;2023-06-10T13:25:32;5.40;;;3.30;;
58784;SDS011;44557;51.862;19.378;2023-06-10T13:27:35;8.20;;;5.10;;
58784;SDS011;44557;51.862;19.378;2023-06-10T13:29:40;7.00;;;4.90;;
58784;SDS011;44557;51.862;19.378;2023-06-10T13:31:42;6.90;;;3.70;;
58784;SDS011;44557;51.862;19.378;2023-06-10T13:33:43;5.40;;;3.40;;
58784;SDS011;44557;51.862;19.378;2023-06-10T13:35:46;7.10;;;3.50;;
58784;SDS011;44557;51.862;19.378;2023-06-10T13:37:47;6.90;;;3.40;;
58784;SDS011;44557;51.862;19.378;2023-06-10T13:39:49;6.50;;;3.80;;
58784;SDS011;44557;51.862;19.378;2023-06-10T13:41:52;5.50;;;3.20;;
58784;SDS011;44557;51.862;19.378;2023-06-10T13:43:54;6.10;;;3.60;;
58784;SDS011;44557;51.862;19.378;2023-06-10T13:45:56;6.90;;;3.40;;